Time;durP1;ratioP1;P1;durP2;ratioP2;P2;SDS_P1;SDS_P2;PMS_P1;PMS_P2;Temp;Humidity;BMP_temperature;BMP_pressure;BME280_temperature;BME280_humidity;BME280_pressure;Samples;Min_cycle;Max_cycle;Signal;HPM_P1;HPM_P2
2022/08/25 00:01:13;;;;;;;1999.90;999.90;;;;;;;16.99;69.60;99294.53;8234134;28;20061;-78
2022/08/25 00:05:26;;;;;;;1999.90;999.90;;;;;;;16.92;69.02;99299.13;8236147;28;20057;-78
2022/08/25 00:09:31;;;;;;;1999.90;999.90;;;;;;;16.87;69.42;99292.28;8250613;28;20050;-77
2022/08/25 00:13:42;;;;;;;1999.90;999.90;;;;;;;16.81;69.49;99302.97;8217807;28;20442;-78
2022/08/25 00:17:44;;;;;;;1999.90;999.90;;;;;;;16.79;69.57;99307.41;8247728;28;20061;-78
2022/08/25 00:21:54;;;;;;;1999.90;999.90;;;;;;;16.77;70.48;99306.63;8233690;28;20462;-78
2022/08/25 00:25:55;;;;;;;1999.90;999.90;;;;;;;16.72;70.52;99296.28;8247932;28;20133;-78
2022/08/25 00:29:57;;;;;;;1999.90;999.90;;;;;;;16.70;71.55;99299.84;8245610;28;20070;-77
2022/08/25 00:33:59;;;;;;;1999.90;999.90;;;;;;;16.60;71.46;99300.09;8213809;28;20061;-77
2022/08/25 00:38:01;;;;;;;1999.90;999.90;;;;;;;16.56;71.43;99302.84;8250151;28;20054;-77
2022/08/25 00:42:03;;;;;;;1999.90;999.90;;;;;;;16.53;71.19;99308.19;8251053;28;20478;-77
2022/08/25 00:46:16;;;;;;;1999.90;999.90;;;;;;;16.49;71.39;99315.25;8231484;28;20625;-78
2022/08/25 00:50:19;;;;;;;1999.90;999.90;;;;;;;16.45;71.63;99310.16;8252932;28;20042;-78
2022/08/25 00:54:27;;;;;;;1999.90;999.90;;;;;;;16.42;71.46;99313.75;8248165;28;20419;-78
2022/08/25 00:58:31;;;;;;;1999.90;999.90;;;;;;;16.37;71.56;99299.91;8250639;28;20074;-77
2022/08/25 01:02:32;;;;;;;1999.90;999.90;;;;;;;16.34;71.65;99307.88;8235869;28;20050;-78
2022/08/25 01:06:37;;;;;;;1999.90;999.90;;;;;;;16.27;71.52;99314.19;8225205;28;20106;-78
2022/08/25 01:10:42;;;;;;;1999.90;999.90;;;;;;;16.19;71.37;99316.16;8244608;28;20312;-78
2022/08/25 01:14:45;;;;;;;1999.90;999.90;;;;;;;16.14;71.86;99311.03;8262627;28;20686;-78
2022/08/25 01:18:55;;;;;;;1999.90;999.90;;;;;;;16.12;72.31;99314.59;8243144;28;20137;-77
2022/08/25 01:22:58;;;;;;;1999.90;999.90;;;;;;;16.07;72.92;99314.75;8256841;28;20089;-78
2022/08/25 01:27:00;;;;;;;1999.90;999.90;;;;;;;16.05;72.71;99315.69;8256623;28;20070;-77
2022/08/25 01:31:02;;;;;;;1999.90;999.90;;;;;;;15.99;72.67;99319.34;8254977;28;20070;-78
2022/08/25 01:35:04;;;;;;;1999.90;999.90;;;;;;;15.93;73.13;99327.34;8238456;28;20082;-78
2022/08/25 01:39:06;;;;;;;;;;;;;;;15.93;73.06;99325.59;8251633;28;20840;-78
2022/08/25 01:43:13;;;;;;;1999.90;999.90;;;;;;;15.92;73.26;99328.25;8248834;28;20349;-78
2022/08/25 01:47:15;;;;;;;1999.90;999.90;;;;;;;15.86;73.15;99328.44;8257065;28;20046;-78
2022/08/25 01:51:20;;;;;;;1999.90;999.90;;;;;;;15.80;73.39;99325.97;8256734;28;20066;-79
2022/08/25 01:55:22;;;;;;;1999.90;999.90;;;;;;;15.76;73.65;99325.19;8239698;28;20879;-78
2022/08/25 01:59:25;;;;;;;1999.90;999.90;;;;;;;15.68;73.75;99320.16;8261238;28;20046;-78
2022/08/25 02:03:28;;;;;;;1999.90;999.90;;;;;;;15.65;73.94;99322.88;8238984;28;20050;-77
2022/08/25 02:07:32;;;;;;;1999.90;999.90;;;;;;;15.58;74.43;99316.03;8239736;28;20041;-77
2022/08/25 02:11:36;;;;;;;1999.90;999.90;;;;;;;15.54;74.74;99321.38;8244997;28;20054;-77
2022/08/25 02:15:41;;;;;;;1999.90;999.90;;;;;;;15.54;73.81;99319.63;8227476;28;20553;-77
2022/08/25 02:19:50;;;;;;;1999.90;999.90;;;;;;;15.52;74.25;99312.72;8242730;28;20062;-77
2022/08/25 02:23:52;;;;;;;1999.90;999.90;;;;;;;15.49;74.29;99310.19;8242808;28;20042;-77
2022/08/25 02:28:01;;;;;;;1999.90;999.90;;;;;;;15.41;74.91;99303.38;8262001;28;20038;-77
2022/08/25 02:32:03;;;;;;;1999.90;999.90;;;;;;;15.34;75.22;99301.81;8244847;28;20137;-77
2022/08/25 02:36:06;;;;;;;;;;;;;;;15.32;75.71;99298.38;8250073;28;20395;-77
2022/08/25 02:40:08;;;;;;;1999.90;999.90;;;;;;;15.23;75.59;99303.81;8249138;28;19995;-77
2022/08/25 02:44:10;;;;;;;;;;;;;;;15.15;75.73;99310.16;8241328;28;20046;-77
2022/08/25 02:48:19;;;;;;;1999.90;999.90;;;;;;;15.11;75.93;99309.38;8226893;28;20521;-77
2022/08/25 02:52:21;;;;;;;1999.90;999.90;;;;;;;15.12;76.14;99311.09;8230026;28;20078;-77
2022/08/25 02:56:24;;;;;;;1999.90;999.90;;;;;;;15.13;76.44;99304.09;8227569;28;20045;-77
2022/08/25 03:00:31;;;;;;;1999.90;999.90;;;;;;;15.10;76.17;99303.28;8237559;28;20042;-77
2022/08/25 03:04:34;;;;;;;1999.90;999.90;;;;;;;15.09;76.34;99300.72;8250685;28;20046;-77
2022/08/25 03:08:36;;;;;;;1999.90;999.90;;;;;;;15.05;76.46;99305.13;8217339;28;20484;-78
2022/08/25 03:12:40;;;;;;;1999.90;999.90;;;;;;;15.01;76.42;99307.88;8220180;28;20042;-78
2022/08/25 03:16:43;;;;;;;1999.90;999.90;;;;;;;14.99;77.04;99314.88;8221455;28;20126;-78
2022/08/25 03:20:46;;;;;;;1999.90;999.90;;;;;;;15.00;77.03;99319.22;8223643;28;20057;-77
2022/08/25 03:24:48;;;;;;;1999.90;999.90;;;;;;;14.95;76.99;99324.56;8239736;28;20047;-78
2022/08/25 03:28:50;;;;;;;1999.90;999.90;;;;;;;14.90;76.90;99322.94;8223639;28;20070;-77
2022/08/25 03:32:51;;;;;;;1999.90;999.90;;;;;;;14.89;76.81;99316.84;8223615;28;20415;-78
2022/08/25 03:37:00;;;;;;;1999.90;999.90;;;;;;;14.87;76.88;99318.63;8237843;28;20149;-77
2022/08/25 03:41:09;;;;;;;1999.90;999.90;;;;;;;14.82;77.48;99315.28;8247916;28;20797;-77
2022/08/25 03:45:15;;;;;;;1999.90;999.90;;;;;;;14.82;77.31;99307.44;8223924;28;20327;-78
2022/08/25 03:49:21;;;;;;;1999.90;999.90;;;;;;;14.75;78.01;99309.34;8222402;28;20054;-78
2022/08/25 03:53:23;;;;;;;1999.90;999.90;;;;;;;14.71;77.66;99293.75;8221531;28;20618;-77
2022/08/25 03:57:24;;;;;;;1999.90;999.90;;;;;;;14.65;77.91;99288.66;8239955;28;20348;-77
2022/08/25 04:01:26;;;;;;;1999.90;999.90;;;;;;;14.59;78.09;99302.75;8225173;28;20053;-78
2022/08/25 04:05:28;;;;;;;;;;;;;;;14.56;78.33;99299.34;8239225;28;20042;-78
2022/08/25 04:09:33;;;;;;;1999.90;999.90;;;;;;;14.55;78.75;99303.72;8225360;28;20262;-77
2022/08/25 04:13:38;;;;;;;1999.90;999.90;;;;;;;14.51;78.63;99304.63;8225475;28;20056;-78
2022/08/25 04:17:39;;;;;;;1999.90;999.90;;;;;;;14.48;78.51;99294.25;8229309;28;20136;-77
2022/08/25 04:21:41;;;;;;;1999.90;999.90;;;;;;;14.42;78.08;99295.22;8220378;28;20078;-78
2022/08/25 04:25:50;;;;;;;1999.90;999.90;;;;;;;14.29;78.60;99298.13;8236209;28;20737;-77
2022/08/25 04:29:51;;;;;;;1999.90;999.90;;;;;;;14.23;79.21;99298.25;8233879;28;20455;-77
2022/08/25 04:33:53;;;;;;;1999.90;999.90;;;;;;;14.25;80.11;99302.56;8232358;28;20074;-78
2022/08/25 04:37:54;;;;;;;1999.90;999.90;;;;;;;14.25;80.51;99299.09;8260565;28;20299;-78
2022/08/25 04:41:59;;;;;;;1999.90;999.90;;;;;;;14.23;80.62;99299.13;8276332;28;20319;-78
2022/08/25 04:46:11;;;;;;;1999.90;999.90;;;;;;;14.21;80.50;99291.31;8264377;28;20056;-78
2022/08/25 04:50:12;;;;;;;1999.90;999.90;;;;;;;14.21;80.01;99293.06;8259396;28;20048;-78
2022/08/25 04:54:21;;;;;;;1999.90;999.90;;;;;;;14.24;80.60;99279.94;8261258;28;20121;-78
2022/08/25 04:58:23;;;;;;;1999.90;999.90;;;;;;;14.26;80.81;99286.00;8261996;28;20121;-77
2022/08/25 05:02:24;;;;;;;1999.90;999.90;;;;;;;14.28;80.29;99268.53;8240923;28;20089;-78
2022/08/25 05:06:27;;;;;;;1999.90;999.90;;;;;;;14.30;80.15;99263.28;8260276;28;20055;-78
2022/08/25 05:10:29;;;;;;;1999.90;999.90;;;;;;;14.30;80.31;99258.91;8268993;28;20398;-77
2022/08/25 05:14:37;;;;;;;1999.90;999.90;;;;;;;14.36;80.16;99258.81;8238952;28;20062;-78
2022/08/25 05:18:39;;;;;;;1999.90;999.90;;;;;;;14.39;80.38;99256.13;8189815;28;20057;-78
2022/08/25 05:22:44;;;;;;;1999.90;999.90;;;;;;;14.47;80.00;99262.06;8211179;28;20150;-77
2022/08/25 05:26:46;;;;;;;1999.90;999.90;;;;;;;14.54;80.22;99256.69;8196549;28;20045;-78
2022/08/25 05:30:48;;;;;;;1999.90;999.90;;;;;;;14.68;79.71;99254.63;8210544;28;20077;-77
2022/08/25 05:34:57;;;;;;;1999.90;999.90;;;;;;;14.85;79.40;99244.63;8251758;28;20054;-78
2022/08/25 05:38:58;;;;;;;1999.90;999.90;;;;;;;15.05;79.36;99239.75;8229934;28;20050;-77
2022/08/25 05:43:00;;;;;;;1999.90;999.90;;;;;;;15.23;78.84;99245.44;8249939;28;20046;-78
2022/08/25 05:47:02;;;;;;;1999.90;999.90;;;;;;;15.46;78.73;99245.72;8243140;28;21311;-78
2022/08/25 05:51:07;;;;;;;1999.90;999.90;;;;;;;15.81;78.01;99249.16;8227464;28;20042;-78
2022/08/25 05:55:09;;;;;;;1999.90;999.90;;;;;;;17.12;74.00;99243.38;8256515;28;20388;-78
2022/08/25 05:59:10;;;;;;;1999.90;999.90;;;;;;;17.97;70.87;99242.19;8255344;28;20050;-78
2022/08/25 06:03:12;;;;;;;1999.90;999.90;;;;;;;18.61;68.15;99255.50;8211629;28;20141;-78
2022/08/25 06:07:20;;;;;;;1999.90;999.90;;;;;;;19.17;65.64;99252.38;8228943;28;20050;-79
2022/08/25 06:11:21;;;;;;;1999.90;999.90;;;;;;;19.71;63.86;99240.44;8257013;28;20046;-77
2022/08/25 06:15:24;;;;;;;1999.90;999.90;;;;;;;20.12;62.60;99243.88;8240173;28;20695;-77
2022/08/25 06:19:26;;;;;;;1999.90;999.90;;;;;;;20.49;61.12;99237.78;8183617;28;21654;-79
2022/08/25 06:23:41;;;;;;;1999.90;999.90;;;;;;;21.00;59.91;99246.72;5726675;28;10023748;-78
2022/08/25 06:27:49;;;;;;;1999.90;999.90;;;;;;;21.47;58.67;99242.66;5627998;28;10001758;-78
2022/08/25 06:31:51;;;;;;;1999.90;999.90;;;;;;;22.01;56.55;99234.47;7859128;28;10000769;-78
2022/08/25 06:36:00;;;;;;;1999.90;999.90;;;;;;;22.62;54.80;99232.94;8229604;28;20462;-78
2022/08/25 06:40:04;;;;;;;1999.90;999.90;;;;;;;23.10;52.99;99236.41;8215257;28;20066;-79
2022/08/25 06:44:06;;;;;;;1999.90;999.90;;;;;;;23.45;51.87;99245.78;8226105;28;20055;-78
2022/08/25 06:48:08;;;;;;;;;;;;;;;23.85;50.79;99245.22;8231733;28;20133;-78
2022/08/25 06:52:17;;;;;;;1999.90;999.90;;;;;;;24.16;49.83;99242.38;8215577;28;19940;-78
2022/08/25 06:56:20;;;;;;;1999.90;999.90;;;;;;;24.47;49.00;99235.19;8219955;28;20117;-77
2022/08/25 07:00:24;;;;;;;1999.90;999.90;;;;;;;24.72;48.55;99243.25;8217132;28;20109;-78
2022/08/25 07:04:33;;;;;;;1999.90;999.90;;;;;;;24.94;48.20;99243.56;8217144;28;20050;-78
2022/08/25 07:08:36;;;;;;;1999.90;999.90;;;;;;;25.15;47.70;99249.31;8203256;28;20042;-78
2022/08/25 07:12:38;;;;;;;1999.90;999.90;;;;;;;25.37;47.18;99243.41;8204432;28;20154;-78
2022/08/25 07:16:40;;;;;;;1999.90;999.90;;;;;;;25.65;46.67;99244.16;8199644;28;20054;-77
2022/08/25 07:20:50;;;;;;;1999.90;999.90;;;;;;;25.96;46.01;99238.47;8198108;28;20057;-78
2022/08/25 07:24:53;;;;;;;1999.90;999.90;;;;;;;26.22;45.72;99246.44;8204349;28;20078;-78
2022/08/25 07:28:55;;;;;;;1999.90;999.90;;;;;;;26.43;45.12;99244.94;8207878;28;20049;-78
2022/08/25 07:32:57;;;;;;;1999.90;999.90;;;;;;;26.64;44.74;99238.03;8233822;28;20061;-77
2022/08/25 07:36:59;;;;;;;1999.90;999.90;;;;;;;26.85;44.21;99238.28;8236413;28;20544;-77
2022/08/25 07:41:02;;;;;;;1999.90;999.90;;;;;;;26.95;43.79;99244.63;8255553;28;20057;-78
2022/08/25 07:45:10;;;;;;;1999.90;999.90;;;;;;;27.19;43.41;99246.47;8258716;28;20070;-78
2022/08/25 07:49:12;;;;;;;1999.90;999.90;;;;;;;27.38;42.76;99242.28;8255353;28;20082;-79
2022/08/25 07:53:17;;;;;;;1999.90;999.90;;;;;;;27.60;42.43;99248.66;8249761;28;20058;-79
2022/08/25 07:57:21;;;;;;;1999.90;999.90;;;;;;;27.77;42.14;99242.88;8238002;28;20054;-79
2022/08/25 08:01:29;;;;;;;1999.90;999.90;;;;;;;27.96;41.62;99240.47;8246620;28;20074;-79
2022/08/25 08:05:32;;;;;;;1999.90;999.90;;;;;;;28.19;41.22;99228.00;8249487;28;20042;-79
2022/08/25 08:09:33;;;;;;;1999.90;999.90;;;;;;;28.41;40.87;99226.31;8248229;28;20628;-79
2022/08/25 08:13:35;;;;;;;1999.90;999.90;;;;;;;28.59;40.43;99224.81;8240079;28;20049;-78
2022/08/25 08:17:41;;;;;;;1999.90;999.90;;;;;;;28.87;40.41;99220.75;8225111;28;20653;-78
2022/08/25 08:21:45;;;;;;;1999.90;999.90;;;;;;;29.10;39.93;99219.72;8250494;28;20540;-77
2022/08/25 08:25:47;;;;;;;1999.90;999.90;;;;;;;29.25;39.20;99212.19;8247366;28;20073;-78
2022/08/25 08:29:48;;;;;;;1999.90;999.90;;;;;;;29.46;39.32;99212.28;8249581;28;20046;-78
2022/08/25 08:33:50;;;;;;;1999.90;999.90;;;;;;;29.71;38.77;99216.34;8249658;28;20061;-78
2022/08/25 08:37:52;;;;;;;1999.90;999.90;;;;;;;29.87;38.42;99216.72;8241591;28;20361;-78
2022/08/25 08:46:20;;;;;;;1999.90;999.90;;;;;;;30.11;37.98;99212.91;8241360;28;20064;-78
2022/08/25 08:50:46;;;;;;;1999.90;999.90;;;;;;;30.21;37.81;99211.97;8242612;28;20082;-77
2022/08/25 08:54:55;;;;;;;1999.90;999.90;;;;;;;30.42;37.29;99214.56;8226809;28;20038;-77
2022/08/25 08:59:09;;;;;;;1999.90;999.90;;;;;;;30.58;37.16;99209.53;8250572;28;20054;-77
2022/08/25 09:03:33;;;;;;;1999.90;999.90;;;;;;;30.66;36.62;99216.91;8248348;28;20578;-77
2022/08/25 09:07:51;;;;;;;1999.90;999.90;;;;;;;30.57;37.00;99215.03;8228670;28;20042;-77
2022/08/25 09:12:10;;;;;;;1999.90;999.90;;;;;;;30.63;36.80;99207.31;8246487;28;20108;-77
2022/08/25 09:16:54;;;;;;;1999.90;999.90;;;;;;;30.57;36.76;99207.84;8231348;28;20288;-77
2022/08/25 09:21:13;;;;;;;1999.90;999.90;;;;;;;30.70;36.95;99214.78;8251074;28;20415;-77
2022/08/25 09:25:26;;;;;;;1999.90;999.90;;;;;;;30.81;36.45;99210.16;8229181;28;20049;-77
2022/08/25 09:30:10;;;;;;;1999.90;999.90;;;;;;;31.02;36.23;99206.50;8243906;28;20101;-77
2022/08/25 09:34:18;;;;;;;1999.90;999.90;;;;;;;31.07;35.44;99198.88;8259108;28;20078;-77
2022/08/25 09:38:21;;;;;;;1999.90;999.90;;;;;;;31.13;35.39;99198.31;8250856;28;20062;-77
2022/08/25 09:42:52;;;;;;;1999.90;999.90;;;;;;;31.30;35.14;99197.63;8251302;28;20141;-76
2022/08/25 09:47:01;;;;;;;1999.90;999.90;;;;;;;31.35;34.79;99197.19;8242943;28;20058;-77
2022/08/25 09:51:22;;;;;;;1999.90;999.90;;;;;;;31.42;34.84;99195.59;8253661;28;20074;-77
2022/08/25 09:55:29;;;;;;;1999.90;999.90;;;;;;;31.43;33.69;99178.53;8233820;28;20799;-78
2022/08/25 09:59:35;;;;;;;1999.90;999.90;;;;;;;31.38;34.23;99173.59;8233008;28;20050;-77
2022/08/25 10:04:02;;;;;;;1999.90;999.90;;;;;;;31.39;34.54;99164.53;8237946;28;20046;-78
2022/08/25 10:08:23;;;;;;;1999.90;999.90;;;;;;;31.53;34.30;99165.94;8250896;28;20057;-79
2022/08/25 10:12:31;;;;;;;1999.90;999.90;;;;;;;31.69;33.37;99160.78;8246129;28;20137;-78
2022/08/25 10:16:45;;;;;;;1999.90;999.90;;;;;;;31.81;33.34;99159.66;8234278;28;20082;-78
2022/08/25 10:21:05;;;;;;;1999.90;999.90;;;;;;;31.84;33.36;99154.00;8227501;28;20046;-78
2022/08/25 10:25:13;;;;;;;1999.90;999.90;;;;;;;31.92;33.50;99147.03;8233737;28;20046;-78
2022/08/25 10:29:33;;;;;;;1999.90;999.90;;;;;;;31.90;33.24;99149.00;8251984;28;20571;-78
2022/08/25 10:34:03;;;;;;;1999.90;999.90;;;;;;;31.89;32.94;99136.56;8230299;28;20086;-78
2022/08/25 10:38:28;;;;;;;1999.90;999.90;;;;;;;31.94;32.17;99145.88;8261934;28;20094;-78
2022/08/25 10:42:51;;;;;;;1999.90;999.90;;;;;;;31.83;31.41;99127.28;8234940;28;20137;-77
2022/08/25 10:47:21;;;;;;;1999.90;999.90;;;;;;;32.01;32.39;99130.88;8251197;28;20050;-77
2022/08/25 10:51:32;;;;;;;1999.90;999.90;;;;;;;31.92;31.89;99123.69;8236304;28;20132;-78
2022/08/25 10:56:00;;;;;;;1999.90;999.90;;;;;;;31.91;32.60;99118.47;8256719;28;20068;-79
2022/08/25 11:00:25;;;;;;;1999.90;999.90;;;;;;;32.14;32.87;99114.41;8241316;28;20042;-76
2022/08/25 11:04:45;;;;;;;1999.90;999.90;;;;;;;32.26;32.17;99094.38;8239838;28;20451;-77
2022/08/25 11:08:56;;;;;;;1999.90;999.90;;;;;;;32.23;32.14;99086.63;8245934;28;20108;-77
2022/08/25 11:13:03;;;;;;;1999.90;999.90;;;;;;;32.36;32.27;99084.44;8237814;28;20061;-78
2022/08/25 11:17:14;;;;;;;1999.90;999.90;;;;;;;32.33;31.69;99078.53;8247494;28;20640;-77
2022/08/25 11:21:24;;;;;;;1999.90;999.90;;;;;;;32.23;30.31;99065.13;8247418;28;21622;-77
2022/08/25 11:25:35;;;;;;;1999.90;999.90;;;;;;;32.12;29.91;99074.22;8250271;28;20054;-75
2022/08/25 11:29:40;;;;;;;1999.90;999.90;;;;;;;32.31;30.51;99070.59;8255616;28;20038;-77
2022/08/25 11:33:49;;;;;;;1999.90;999.90;;;;;;;32.61;29.79;99057.78;8257094;28;20918;-77
2022/08/25 11:38:09;;;;;;;1999.90;999.90;;;;;;;32.67;29.77;99057.13;8254011;28;20064;-77
2022/08/25 11:42:24;;;;;;;1999.90;999.90;;;;;;;32.96;30.69;99054.22;8235425;28;20117;-78
2022/08/25 11:46:44;;;;;;;1999.90;999.90;;;;;;;33.11;29.42;99051.78;8245672;28;20042;-78
2022/08/25 11:51:03;;;;;;;1999.90;999.90;;;;;;;33.22;29.71;99047.00;8239985;28;20057;-77
2022/08/25 11:55:09;;;;;;;1999.90;999.90;;;;;;;33.23;28.10;99053.22;8252601;28;20137;-79
2022/08/25 11:59:53;;;;;;;1999.90;999.90;;;;;;;33.15;29.31;99048.63;8253930;28;20121;-78
2022/08/25 12:04:28;;;;;;;1999.90;999.90;;;;;;;33.16;29.20;99042.22;8214596;28;20133;-78
2022/08/25 12:08:50;;;;;;;1999.90;999.90;;;;;;;33.26;29.19;99044.81;8238686;28;20045;-77
2022/08/25 12:12:58;;;;;;;1999.90;999.90;;;;;;;33.11;28.68;99041.03;8234830;28;20383;-77
2022/08/25 12:17:19;;;;;;;1999.90;999.90;;;;;;;33.14;28.59;99036.16;8246805;28;20058;-78
2022/08/25 12:21:29;;;;;;;1999.90;999.90;;;;;;;33.14;28.54;99036.16;8229682;28;20527;-78
2022/08/25 12:25:38;;;;;;;1999.90;999.90;;;;;;;33.28;28.48;99032.88;8230248;28;20045;-77
2022/08/25 12:29:57;;;;;;;1999.90;999.90;;;;;;;33.37;28.07;99024.88;8251087;28;20156;-77
2022/08/25 12:34:30;;;;;;;1999.90;999.90;;;;;;;33.24;28.24;99010.00;8249797;28;20844;-78
2022/08/25 12:38:45;;;;;;;1999.90;999.90;;;;;;;33.21;27.93;99025.59;8254221;28;20065;-78
2022/08/25 12:43:00;;;;;;;;;;;;;;;33.31;28.73;99021.78;8247685;28;20046;-78
2022/08/25 12:47:09;;;;;;;1999.90;999.90;;;;;;;33.26;28.40;99007.97;8246918;28;19956;-77
2022/08/25 12:51:17;;;;;;;1999.90;999.90;;;;;;;33.35;28.23;99022.34;8236162;28;20046;-77
2022/08/25 12:55:20;;;;;;;1999.90;999.90;;;;;;;33.44;28.10;99016.00;8246819;28;20153;-78
2022/08/25 12:59:33;;;;;;;1999.90;999.90;;;;;;;33.49;27.65;99010.97;8253743;28;20046;-77
2022/08/25 13:03:57;;;;;;;1999.90;999.90;;;;;;;33.39;27.15;99004.84;8239005;28;20740;-78
2022/08/25 13:08:24;;;;;;;1999.90;999.90;;;;;;;33.46;28.32;99000.53;8241532;28;20046;-78
2022/08/25 13:12:45;;;;;;;1999.90;999.90;;;;;;;33.53;27.75;98998.03;8235187;28;20038;-77
2022/08/25 13:16:59;;;;;;;1999.90;999.90;;;;;;;33.57;27.21;98996.69;8255401;28;20042;-77
2022/08/25 13:21:15;;;;;;;1999.90;999.90;;;;;;;33.62;27.36;98989.81;8249298;28;20050;-77
2022/08/25 13:25:19;;;;;;;1999.90;999.90;;;;;;;33.63;27.22;98985.28;8223786;28;20038;-76
2022/08/25 13:29:35;;;;;;;1999.90;999.90;;;;;;;33.55;27.16;98982.53;8213180;28;20046;-77
2022/08/25 13:33:56;;;;;;;1999.90;999.90;;;;;;;33.57;27.56;98977.84;8238454;28;20526;-77
2022/08/25 13:38:18;;;;;;;1999.90;999.90;;;;;;;33.58;27.18;98975.00;8253927;28;20049;-76
2022/08/25 13:42:19;;;;;;;1999.90;999.90;;;;;;;33.72;27.47;98965.44;8227957;28;20061;-78
2022/08/25 13:46:30;;;;;;;1999.90;999.90;;;;;;;33.87;27.20;98950.34;8247148;28;20136;-78
2022/08/25 13:50:35;;;;;;;1999.90;999.90;;;;;;;33.88;26.95;98959.25;8251291;28;20173;-78
2022/08/25 13:54:48;;;;;;;1999.90;999.90;;;;;;;33.83;26.75;98950.81;8251245;28;20054;-78
2022/08/25 13:58:50;;;;;;;1999.90;999.90;;;;;;;33.87;26.91;98960.28;8251169;28;20079;-78
2022/08/25 14:03:00;;;;;;;1999.90;999.90;;;;;;;33.83;26.50;98953.50;8219205;28;20058;-77
2022/08/25 14:07:13;;;;;;;1999.90;999.90;;;;;;;33.91;27.36;98940.91;8240461;28;20725;-77
2022/08/25 14:11:45;;;;;;;1999.90;999.90;;;;;;;33.99;27.18;98939.25;8236125;28;20450;-77
2022/08/25 14:15:48;;;;;;;1999.90;999.90;;;;;;;34.09;27.17;98939.91;8256868;28;20839;-77
2022/08/25 14:19:57;;;;;;;1999.90;999.90;;;;;;;34.00;26.92;98943.63;8233915;28;20138;-78
2022/08/25 14:23:59;;;;;;;1999.90;999.90;;;;;;;33.93;26.80;98929.97;8255108;28;20534;-78
2022/08/25 14:28:15;;;;;;;1999.90;999.90;;;;;;;33.91;26.91;98924.75;8252846;28;20043;-78
2022/08/25 14:32:17;;;;;;;1999.90;999.90;;;;;;;33.89;26.34;98928.63;8241242;28;20112;-77
2022/08/25 14:36:19;;;;;;;1999.90;999.90;;;;;;;33.81;26.21;98920.50;8249131;28;20102;-77
2022/08/25 14:40:21;;;;;;;1999.90;999.90;;;;;;;33.85;26.37;98908.41;8251868;28;20061;-77
2022/08/25 14:44:23;;;;;;;1999.90;999.90;;;;;;;33.98;26.51;98919.56;8238389;28;20141;-78
2022/08/25 14:48:38;;;;;;;1999.90;999.90;;;;;;;34.06;26.86;98911.47;8252361;28;20062;-77
2022/08/25 14:52:40;;;;;;;1999.90;999.90;;;;;;;33.89;26.45;98910.59;8253578;28;20129;-77
2022/08/25 14:56:44;;;;;;;1999.90;999.90;;;;;;;33.94;26.32;98913.66;8238988;28;20643;-78
2022/08/25 15:00:46;;;;;;;1999.90;999.90;;;;;;;33.92;26.22;98912.97;8231666;28;20082;-77
2022/08/25 15:04:52;;;;;;;1999.90;999.90;;;;;;;33.98;26.87;98911.47;8250516;28;20038;-78
2022/08/25 15:09:06;;;;;;;1999.90;999.90;;;;;;;34.14;26.80;98914.16;8250164;28;20042;-78
2022/08/25 15:13:08;;;;;;;1999.90;999.90;;;;;;;34.18;26.32;98911.97;8253903;28;20046;-77
2022/08/25 15:17:17;;;;;;;1999.90;999.90;;;;;;;34.13;27.35;98904.41;8253279;28;20047;-78
2022/08/25 15:21:18;;;;;;;1999.90;999.90;;;;;;;34.07;26.04;98905.06;8233614;28;20078;-77
2022/08/25 15:25:21;;;;;;;1999.90;999.90;;;;;;;34.21;26.95;98909.78;8231839;28;20053;-77
2022/08/25 15:29:28;;;;;;;1999.90;999.90;;;;;;;34.30;26.34;98905.25;8250602;28;20053;-77
2022/08/25 15:33:30;;;;;;;1999.90;999.90;;;;;;;34.39;26.17;98911.47;8248473;28;20145;-77
2022/08/25 15:37:31;;;;;;;1999.90;999.90;;;;;;;34.33;26.67;98899.50;8252473;28;20045;-77
2022/08/25 15:41:35;;;;;;;1999.90;999.90;;;;;;;34.28;26.84;98899.16;8237054;28;20137;-77
2022/08/25 15:45:43;;;;;;;1999.90;999.90;;;;;;;34.15;25.49;98885.38;8228263;28;20848;-77
2022/08/25 15:49:47;;;;;;;1999.90;999.90;;;;;;;34.29;26.82;98894.59;8215157;28;20042;-76
2022/08/25 15:53:49;;;;;;;1999.90;999.90;;;;;;;34.27;26.51;98894.78;8248984;28;20485;-77
2022/08/25 15:57:50;;;;;;;1999.90;999.90;;;;;;;34.39;26.40;98903.38;8247135;28;20070;-76
2022/08/25 16:01:52;;;;;;;1999.90;999.90;;;;;;;34.38;26.05;98896.31;8247911;28;20058;-77
2022/08/25 16:05:55;;;;;;;1999.90;999.90;;;;;;;34.48;26.43;98897.00;8251015;28;20046;-76
2022/08/25 16:09:57;;;;;;;1999.90;999.90;;;;;;;34.53;26.22;98892.75;8248594;28;21006;-77
2022/08/25 16:13:59;;;;;;;1999.90;999.90;;;;;;;34.69;26.26;98886.47;8228700;28;20139;-77
2022/08/25 16:18:07;;;;;;;1999.90;999.90;;;;;;;34.65;25.46;98889.69;8244899;28;20057;-77
2022/08/25 16:22:09;;;;;;;1999.90;999.90;;;;;;;34.58;24.87;98884.13;8247736;28;20085;-77
2022/08/25 16:26:11;;;;;;;1999.90;999.90;;;;;;;34.51;25.89;98891.25;8247686;28;20070;-78
2022/08/25 16:30:13;;;;;;;1999.90;999.90;;;;;;;34.27;27.24;98886.69;8239820;28;20646;-77
2022/08/25 16:34:18;;;;;;;1999.90;999.90;;;;;;;33.83;26.79;98891.56;8247756;28;20074;-77
2022/08/25 16:38:20;;;;;;;1999.90;999.90;;;;;;;33.34;27.21;98881.53;8246349;28;20290;-77
2022/08/25 16:42:22;;;;;;;1999.90;999.90;;;;;;;32.83;27.77;98873.56;8250290;28;20050;-77
2022/08/25 16:46:23;;;;;;;1999.90;999.90;;;;;;;32.38;28.43;98867.41;8251601;28;20143;-78
2022/08/25 16:50:29;;;;;;;1999.90;999.90;;;;;;;32.01;29.75;98864.09;8231484;28;20577;-77
2022/08/25 16:58:58;;;;;;;1999.90;999.90;;;;;;;31.40;30.37;98867.50;8245328;28;20129;-77
2022/08/25 17:03:03;;;;;;;1999.90;999.90;;;;;;;31.18;31.05;98872.31;8233988;28;20117;-77
2022/08/25 17:07:05;;;;;;;1999.90;999.90;;;;;;;30.94;31.55;98869.31;8231051;28;21009;-78
2022/08/25 17:11:14;;;;;;;1999.90;999.90;;;;;;;30.74;32.05;98865.88;8245152;28;20165;-77
2022/08/25 17:15:21;;;;;;;1999.90;999.90;;;;;;;30.53;32.78;98863.38;8238251;28;20110;-77
2022/08/25 17:19:24;;;;;;;1999.90;999.90;;;;;;;30.36;32.74;98864.13;8231056;28;20077;-77
2022/08/25 17:23:26;;;;;;;1999.90;999.90;;;;;;;30.06;33.35;98865.16;8209526;28;20038;-77
2022/08/25 17:27:34;;;;;;;1999.90;999.90;;;;;;;29.77;34.25;98862.47;8246887;28;21520;-77
2022/08/25 17:31:38;;;;;;;1999.90;999.90;;;;;;;29.54;34.88;98861.91;8227262;28;20050;-77
2022/08/25 17:35:44;;;;;;;1999.90;999.90;;;;;;;29.29;35.09;98857.91;8244608;28;20443;-77
2022/08/25 17:39:46;;;;;;;1999.90;999.90;;;;;;;29.09;36.20;98857.03;8221097;28;20093;-77
2022/08/25 17:43:51;;;;;;;1999.90;999.90;;;;;;;28.86;36.91;98866.22;8239443;28;20301;-77
2022/08/25 17:47:52;;;;;;;1999.90;999.90;;;;;;;28.71;35.35;98864.88;8232634;28;20593;-77
2022/08/25 17:52:01;;;;;;;1999.90;999.90;;;;;;;28.52;38.07;98868.28;8243548;28;20046;-78
2022/08/25 17:56:07;;;;;;;1999.90;999.90;;;;;;;28.21;38.75;98867.41;8257652;28;20617;-79
2022/08/25 18:00:18;;;;;;;1999.90;999.90;;;;;;;27.82;39.31;98866.25;8253998;28;20146;-78
2022/08/25 18:04:21;;;;;;;1999.90;999.90;;;;;;;27.53;40.24;98866.84;8250055;28;20192;-78
2022/08/25 18:08:23;;;;;;;1999.90;999.90;;;;;;;27.26;40.37;98869.09;8220940;28;20046;-79
2022/08/25 18:12:37;;;;;;;1999.90;999.90;;;;;;;27.00;40.78;98872.06;8244295;28;20050;-80
2022/08/25 18:16:39;;;;;;;1999.90;999.90;;;;;;;26.68;41.41;98877.22;8250016;28;20671;-79
2022/08/25 18:20:44;;;;;;;1999.90;999.90;;;;;;;26.49;41.47;98875.16;8235260;28;20038;-80
2022/08/25 18:24:53;;;;;;;1999.90;999.90;;;;;;;26.33;42.96;98874.63;8240390;28;20092;-79
2022/08/25 18:28:56;;;;;;;1999.90;999.90;;;;;;;26.16;43.37;98881.25;8252581;28;20410;-79
2022/08/25 18:33:00;;;;;;;1999.90;999.90;;;;;;;25.99;42.75;98880.84;8249513;28;20042;-79